sensor_id;sensor_type;location;lat;lon;timestamp;P1;durP1;ratioP1;P2;durP2;ratioP2
60030;SDS011;45901;47.600;9.890;2023-08-30T00:02:20;1.83;;;1.40;;
60030;SDS011;45901;47.600;9.890;2023-08-30T00:04:47;1.70;;;1.40;;
60030;SDS011;45901;47.600;9.890;2023-08-30T00:07:15;2.97;;;1.30;;
60030;SDS011;45901;47.600;9.890;2023-08-30T00:09:43;1.60;;;1.10;;
60030;SDS011;45901;47.600;9.890;2023-08-30T00:12:10;2.30;;;1.63;;
60030;SDS011;45901;47.600;9.890;2023-08-30T00:14:37;1.50;;;1.13;;
60030;SDS011;45901;47.600;9.890;2023-08-30T00:17:04;2.00;;;1.10;;
60030;SDS011;45901;47.600;9.890;2023-08-30T00:19:31;1.43;;;1.10;;
60030;SDS011;45901;47.600;9.890;2023-08-30T00:21:58;3.90;;;1.20;;
60030;SDS011;45901;47.600;9.890;2023-08-30T00:24:26;1.63;;;1.40;;
60030;SDS011;45901;47.600;9.890;2023-08-30T00:26:54;1.30;;;1.20;;
60030;SDS011;45901;47.600;9.890;2023-08-30T00:29:21;3.67;;;1.47;;
60030;SDS011;45901;47.600;9.890;2023-08-30T00:31:48;1.70;;;1.30;;
60030;SDS011;45901;47.600;9.890;2023-08-30T00:34:15;1.60;;;1.30;;
60030;SDS011;45901;47.600;9.890;2023-08-30T00:36:42;1.77;;;1.23;;
60030;SDS011;45901;47.600;9.890;2023-08-30T00:39:09;1.50;;;1.20;;
60030;SDS011;45901;47.600;9.890;2023-08-30T00:41:36;2.47;;;1.53;;
60030;SDS011;45901;47.600;9.890;2023-08-30T00:44:05;3.23;;;1.50;;
60030;SDS011;45901;47.600;9.890;2023-08-30T00:46:32;2.90;;;1.73;;
60030;SDS011;45901;47.600;9.890;2023-08-30T00:48:59;2.60;;;1.90;;
60030;SDS011;45901;47.600;9.890;2023-08-30T00:51:27;1.97;;;1.80;;
60030;SDS011;45901;47.600;9.890;2023-08-30T00:53:55;2.50;;;1.80;;
60030;SDS011;45901;47.600;9.890;2023-08-30T00:56:22;2.23;;;1.70;;
60030;SDS011;45901;47.600;9.890;2023-08-30T00:58:49;2.33;;;1.87;;
60030;SDS011;45901;47.600;9.890;2023-08-30T01:01:18;2.33;;;2.13;;
60030;SDS011;45901;47.600;9.890;2023-08-30T01:03:45;2.63;;;2.10;;
60030;SDS011;45901;47.600;9.890;2023-08-30T01:06:13;2.77;;;2.10;;
60030;SDS011;45901;47.600;9.890;2023-08-30T01:08:40;4.03;;;2.03;;
60030;SDS011;45901;47.600;9.890;2023-08-30T01:11:11;2.80;;;2.20;;
60030;SDS011;45901;47.600;9.890;2023-08-30T01:13:50;3.40;;;2.70;;
60030;SDS011;45901;47.600;9.890;2023-08-30T01:16:23;3.10;;;2.00;;
60030;SDS011;45901;47.600;9.890;2023-08-30T01:18:51;1.97;;;1.83;;
60030;SDS011;45901;47.600;9.890;2023-08-30T01:21:23;2.03;;;1.80;;
60030;SDS011;45901;47.600;9.890;2023-08-30T01:23:59;2.57;;;2.10;;
60030;SDS011;45901;47.600;9.890;2023-08-30T01:26:34;3.03;;;1.90;;
60030;SDS011;45901;47.600;9.890;2023-08-30T01:29:12;3.07;;;2.30;;
60030;SDS011;45901;47.600;9.890;2023-08-30T01:31:42;3.03;;;2.30;;
60030;SDS011;45901;47.600;9.890;2023-08-30T01:34:11;3.07;;;2.50;;
60030;SDS011;45901;47.600;9.890;2023-08-30T01:36:40;4.33;;;3.27;;
60030;SDS011;45901;47.600;9.890;2023-08-30T01:39:08;3.70;;;3.00;;
60030;SDS011;45901;47.600;9.890;2023-08-30T01:41:39;4.73;;;2.90;;
60030;SDS011;45901;47.600;9.890;2023-08-30T01:44:07;2.63;;;2.40;;
60030;SDS011;45901;47.600;9.890;2023-08-30T01:46:37;2.57;;;2.37;;
60030;SDS011;45901;47.600;9.890;2023-08-30T01:49:05;2.70;;;2.00;;
60030;SDS011;45901;47.600;9.890;2023-08-30T01:51:33;2.20;;;1.87;;
60030;SDS011;45901;47.600;9.890;2023-08-30T01:54:01;1.87;;;1.67;;
60030;SDS011;45901;47.600;9.890;2023-08-30T01:56:29;3.00;;;1.57;;
60030;SDS011;45901;47.600;9.890;2023-08-30T01:58:56;2.13;;;1.83;;
60030;SDS011;45901;47.600;9.890;2023-08-30T02:01:23;2.20;;;1.90;;
60030;SDS011;45901;47.600;9.890;2023-08-30T02:03:52;1.93;;;1.70;;
60030;SDS011;45901;47.600;9.890;2023-08-30T02:06:21;2.20;;;2.00;;
60030;SDS011;45901;47.600;9.890;2023-08-30T02:08:52;2.00;;;1.80;;
60030;SDS011;45901;47.600;9.890;2023-08-30T02:11:35;2.17;;;1.80;;
60030;SDS011;45901;47.600;9.890;2023-08-30T02:14:05;2.63;;;1.83;;
60030;SDS011;45901;47.600;9.890;2023-08-30T02:16:36;7.50;;;2.40;;
60030;SDS011;45901;47.600;9.890;2023-08-30T02:19:06;1.63;;;1.53;;
60030;SDS011;45901;47.600;9.890;2023-08-30T02:21:33;1.90;;;1.60;;
60030;SDS011;45901;47.600;9.890;2023-08-30T02:24:00;1.73;;;1.63;;
60030;SDS011;45901;47.600;9.890;2023-08-30T02:26:28;2.43;;;1.73;;
60030;SDS011;45901;47.600;9.890;2023-08-30T02:28:55;3.00;;;1.83;;
60030;SDS011;45901;47.600;9.890;2023-08-30T02:31:22;2.03;;;1.70;;
60030;SDS011;45901;47.600;9.890;2023-08-30T02:33:49;1.67;;;1.57;;
60030;SDS011;45901;47.600;9.890;2023-08-30T02:36:17;2.43;;;1.90;;
60030;SDS011;45901;47.600;9.890;2023-08-30T02:38:44;2.97;;;2.10;;
60030;SDS011;45901;47.600;9.890;2023-08-30T02:41:11;2.20;;;2.00;;
60030;SDS011;45901;47.600;9.890;2023-08-30T02:43:38;1.80;;;1.70;;
60030;SDS011;45901;47.600;9.890;2023-08-30T02:46:05;2.87;;;1.70;;
60030;SDS011;45901;47.600;9.890;2023-08-30T02:48:33;2.37;;;2.07;;
60030;SDS011;45901;47.600;9.890;2023-08-30T02:51:00;4.80;;;2.03;;
60030;SDS011;45901;47.600;9.890;2023-08-30T02:53:28;3.23;;;1.90;;
60030;SDS011;45901;47.600;9.890;2023-08-30T02:55:55;2.57;;;2.03;;
60030;SDS011;45901;47.600;9.890;2023-08-30T02:58:23;2.43;;;1.97;;
60030;SDS011;45901;47.600;9.890;2023-08-30T03:00:50;4.10;;;2.20;;
60030;SDS011;45901;47.600;9.890;2023-08-30T03:03:18;3.33;;;2.00;;
60030;SDS011;45901;47.600;9.890;2023-08-30T03:05:45;2.53;;;2.03;;
60030;SDS011;45901;47.600;9.890;2023-08-30T03:08:12;2.47;;;1.90;;
60030;SDS011;45901;47.600;9.890;2023-08-30T03:10:40;2.30;;;1.90;;
60030;SDS011;45901;47.600;9.890;2023-08-30T03:13:07;2.37;;;2.10;;
60030;SDS011;45901;47.600;9.890;2023-08-30T03:15:34;2.77;;;2.20;;
60030;SDS011;45901;47.600;9.890;2023-08-30T03:18:01;3.00;;;2.43;;
60030;SDS011;45901;47.600;9.890;2023-08-30T03:20:29;2.53;;;2.13;;
60030;SDS011;45901;47.600;9.890;2023-08-30T03:22:56;2.27;;;2.07;;
60030;SDS011;45901;47.600;9.890;2023-08-30T03:25:24;2.63;;;2.00;;
60030;SDS011;45901;47.600;9.890;2023-08-30T03:27:52;2.50;;;2.27;;
60030;SDS011;45901;47.600;9.890;2023-08-30T03:30:19;3.57;;;2.03;;
60030;SDS011;45901;47.600;9.890;2023-08-30T03:32:46;3.70;;;2.30;;
60030;SDS011;45901;47.600;9.890;2023-08-30T03:35:13;2.67;;;2.00;;
60030;SDS011;45901;47.600;9.890;2023-08-30T03:37:42;2.27;;;2.00;;
60030;SDS011;45901;47.600;9.890;2023-08-30T03:40:10;1.97;;;1.73;;
60030;SDS011;45901;47.600;9.890;2023-08-30T03:42:37;1.53;;;1.40;;
60030;SDS011;45901;47.600;9.890;2023-08-30T03:45:07;3.87;;;1.80;;
60030;SDS011;45901;47.600;9.890;2023-08-30T03:47:35;2.47;;;1.80;;
60030;SDS011;45901;47.600;9.890;2023-08-30T03:50:02;1.93;;;1.70;;
60030;SDS011;45901;47.600;9.890;2023-08-30T03:52:29;3.57;;;1.47;;
60030;SDS011;45901;47.600;9.890;2023-08-30T03:54:56;1.40;;;1.30;;
60030;SDS011;45901;47.600;9.890;2023-08-30T03:57:23;3.23;;;1.23;;
60030;SDS011;45901;47.600;9.890;2023-08-30T03:59:50;2.03;;;1.40;;
60030;SDS011;45901;47.600;9.890;2023-08-30T04:02:19;1.57;;;1.20;;
60030;SDS011;45901;47.600;9.890;2023-08-30T04:04:46;2.00;;;1.70;;
60030;SDS011;45901;47.600;9.890;2023-08-30T04:07:14;2.27;;;1.70;;
60030;SDS011;45901;47.600;9.890;2023-08-30T04:09:41;3.93;;;2.00;;
60030;SDS011;45901;47.600;9.890;2023-08-30T04:12:08;3.10;;;1.77;;
60030;SDS011;45901;47.600;9.890;2023-08-30T04:14:35;2.73;;;1.80;;
60030;SDS011;45901;47.600;9.890;2023-08-30T04:17:02;3.03;;;1.90;;
60030;SDS011;45901;47.600;9.890;2023-08-30T04:19:30;2.80;;;2.20;;
60030;SDS011;45901;47.600;9.890;2023-08-30T04:21:57;2.20;;;2.00;;
60030;SDS011;45901;47.600;9.890;2023-08-30T04:24:24;2.20;;;2.00;;
60030;SDS011;45901;47.600;9.890;2023-08-30T04:26:51;3.87;;;2.60;;
60030;SDS011;45901;47.600;9.890;2023-08-30T04:29:19;3.40;;;2.23;;
60030;SDS011;45901;47.600;9.890;2023-08-30T04:31:46;3.00;;;2.30;;
60030;SDS011;45901;47.600;9.890;2023-08-30T04:34:14;2.33;;;2.00;;
60030;SDS011;45901;47.600;9.890;2023-08-30T04:36:42;3.47;;;2.33;;
60030;SDS011;45901;47.600;9.890;2023-08-30T04:39:09;3.10;;;2.50;;
60030;SDS011;45901;47.600;9.890;2023-08-30T04:41:37;3.27;;;2.60;;
60030;SDS011;45901;47.600;9.890;2023-08-30T04:44:04;3.67;;;2.30;;
60030;SDS011;45901;47.600;9.890;2023-08-30T04:46:31;2.40;;;1.97;;
60030;SDS011;45901;47.600;9.890;2023-08-30T04:48:58;4.37;;;2.40;;
60030;SDS011;45901;47.600;9.890;2023-08-30T04:51:26;2.37;;;2.17;;
60030;SDS011;45901;47.600;9.890;2023-08-30T04:53:54;2.43;;;2.17;;
60030;SDS011;45901;47.600;9.890;2023-08-30T04:56:22;2.60;;;2.20;;
60030;SDS011;45901;47.600;9.890;2023-08-30T04:58:49;2.47;;;2.10;;
60030;SDS011;45901;47.600;9.890;2023-08-30T05:01:16;2.87;;;2.27;;
60030;SDS011;45901;47.600;9.890;2023-08-30T05:03:43;2.77;;;2.37;;
60030;SDS011;45901;47.600;9.890;2023-08-30T05:06:10;3.17;;;2.10;;
60030;SDS011;45901;47.600;9.890;2023-08-30T05:08:41;17.33;;;9.73;;
60030;SDS011;45901;47.600;9.890;2023-08-30T05:11:09;14.63;;;8.50;;
60030;SDS011;45901;47.600;9.890;2023-08-30T05:13:36;12.87;;;6.53;;
60030;SDS011;45901;47.600;9.890;2023-08-30T05:16:03;8.00;;;4.50;;
60030;SDS011;45901;47.600;9.890;2023-08-30T05:18:31;10.40;;;5.80;;
60030;SDS011;45901;47.600;9.890;2023-08-30T05:20:58;5.53;;;4.57;;
60030;SDS011;45901;47.600;9.890;2023-08-30T05:23:28;5.60;;;4.30;;
60030;SDS011;45901;47.600;9.890;2023-08-30T05:25:55;5.80;;;3.57;;
60030;SDS011;45901;47.600;9.890;2023-08-30T05:28:23;26.60;;;3.20;;
60030;SDS011;45901;47.600;9.890;2023-08-30T05:30:50;15.90;;;2.40;;
60030;SDS011;45901;47.600;9.890;2023-08-30T05:33:17;5.90;;;2.53;;
60030;SDS011;45901;47.600;9.890;2023-08-30T05:35:44;2.50;;;2.10;;
60030;SDS011;45901;47.600;9.890;2023-08-30T05:38:11;6.00;;;2.07;;
60030;SDS011;45901;47.600;9.890;2023-08-30T05:40:38;2.93;;;1.97;;
60030;SDS011;45901;47.600;9.890;2023-08-30T05:43:07;2.57;;;2.10;;
60030;SDS011;45901;47.600;9.890;2023-08-30T05:45:36;2.77;;;2.10;;
60030;SDS011;45901;47.600;9.890;2023-08-30T05:48:03;2.00;;;1.77;;
60030;SDS011;45901;47.600;9.890;2023-08-30T05:50:31;1.90;;;1.60;;
60030;SDS011;45901;47.600;9.890;2023-08-30T05:52:59;2.77;;;1.73;;
60030;SDS011;45901;47.600;9.890;2023-08-30T05:55:26;2.27;;;1.67;;
60030;SDS011;45901;47.600;9.890;2023-08-30T05:57:53;3.97;;;1.83;;
60030;SDS011;45901;47.600;9.890;2023-08-30T06:00:20;2.27;;;1.90;;
60030;SDS011;45901;47.600;9.890;2023-08-30T06:02:48;3.70;;;1.70;;
60030;SDS011;45901;47.600;9.890;2023-08-30T06:05:16;2.67;;;1.80;;
60030;SDS011;45901;47.600;9.890;2023-08-30T06:07:44;1.77;;;1.67;;
60030;SDS011;45901;47.600;9.890;2023-08-30T06:10:11;2.40;;;1.90;;
60030;SDS011;45901;47.600;9.890;2023-08-30T06:12:38;2.10;;;1.87;;
60030;SDS011;45901;47.600;9.890;2023-08-30T06:15:07;2.60;;;1.73;;
60030;SDS011;45901;47.600;9.890;2023-08-30T06:17:34;3.83;;;2.03;;
60030;SDS011;45901;47.600;9.890;2023-08-30T06:20:03;3.37;;;2.13;;
60030;SDS011;45901;47.600;9.890;2023-08-30T06:22:31;2.83;;;2.10;;
60030;SDS011;45901;47.600;9.890;2023-08-30T06:24:58;3.43;;;1.80;;
60030;SDS011;45901;47.600;9.890;2023-08-30T06:27:25;1.60;;;1.43;;
60030;SDS011;45901;47.600;9.890;2023-08-30T06:29:52;3.13;;;1.30;;
60030;SDS011;45901;47.600;9.890;2023-08-30T06:32:19;3.40;;;1.87;;
60030;SDS011;45901;47.600;9.890;2023-08-30T06:34:46;2.90;;;1.40;;
60030;SDS011;45901;47.600;9.890;2023-08-30T06:37:14;2.40;;;1.43;;
60030;SDS011;45901;47.600;9.890;2023-08-30T06:39:42;1.80;;;1.40;;
60030;SDS011;45901;47.600;9.890;2023-08-30T06:42:09;1.30;;;1.20;;
60030;SDS011;45901;47.600;9.890;2023-08-30T06:44:36;2.30;;;1.53;;
60030;SDS011;45901;47.600;9.890;2023-08-30T06:47:03;3.27;;;1.50;;
60030;SDS011;45901;47.600;9.890;2023-08-30T06:49:31;2.27;;;1.53;;
60030;SDS011;45901;47.600;9.890;2023-08-30T06:51:59;2.60;;;1.40;;
60030;SDS011;45901;47.600;9.890;2023-08-30T06:54:29;1.73;;;1.40;;
60030;SDS011;45901;47.600;9.890;2023-08-30T06:57:01;2.47;;;1.70;;
60030;SDS011;45901;47.600;9.890;2023-08-30T06:59:28;6.67;;;1.60;;
60030;SDS011;45901;47.600;9.890;2023-08-30T07:01:56;3.70;;;1.57;;
60030;SDS011;45901;47.600;9.890;2023-08-30T07:04:23;2.50;;;1.37;;
60030;SDS011;45901;47.600;9.890;2023-08-30T07:06:50;1.37;;;1.20;;
60030;SDS011;45901;47.600;9.890;2023-08-30T07:09:18;2.37;;;1.43;;
60030;SDS011;45901;47.600;9.890;2023-08-30T07:11:48;1.43;;;1.20;;
60030;SDS011;45901;47.600;9.890;2023-08-30T07:14:15;2.13;;;1.40;;
60030;SDS011;45901;47.600;9.890;2023-08-30T07:16:42;1.70;;;1.20;;
60030;SDS011;45901;47.600;9.890;2023-08-30T07:19:09;2.57;;;1.10;;
60030;SDS011;45901;47.600;9.890;2023-08-30T07:21:36;1.20;;;1.10;;
60030;SDS011;45901;47.600;9.890;2023-08-30T07:24:04;2.67;;;1.00;;
60030;SDS011;45901;47.600;9.890;2023-08-30T07:26:32;2.60;;;1.63;;
60030;SDS011;45901;47.600;9.890;2023-08-30T07:29:01;1.00;;;0.90;;
60030;SDS011;45901;47.600;9.890;2023-08-30T07:31:30;2.10;;;1.00;;
60030;SDS011;45901;47.600;9.890;2023-08-30T07:33:57;2.23;;;0.80;;
60030;SDS011;45901;47.600;9.890;2023-08-30T07:36:24;1.80;;;1.20;;
60030;SDS011;45901;47.600;9.890;2023-08-30T07:38:53;1.53;;;1.33;;
60030;SDS011;45901;47.600;9.890;2023-08-30T07:41:20;1.03;;;0.87;;
60030;SDS011;45901;47.600;9.890;2023-08-30T07:43:47;5.00;;;1.10;;
60030;SDS011;45901;47.600;9.890;2023-08-30T07:46:15;2.07;;;1.10;;
60030;SDS011;45901;47.600;9.890;2023-08-30T07:48:42;1.80;;;1.10;;
60030;SDS011;45901;47.600;9.890;2023-08-30T07:51:09;3.13;;;1.20;;
60030;SDS011;45901;47.600;9.890;2023-08-30T07:53:36;1.80;;;1.13;;
60030;SDS011;45901;47.600;9.890;2023-08-30T07:56:03;1.77;;;0.90;;
60030;SDS011;45901;47.600;9.890;2023-08-30T07:58:30;1.50;;;1.07;;
60030;SDS011;45901;47.600;9.890;2023-08-30T08:00:57;2.63;;;1.40;;
60030;SDS011;45901;47.600;9.890;2023-08-30T08:03:26;1.70;;;1.00;;
60030;SDS011;45901;47.600;9.890;2023-08-30T08:05:53;1.43;;;0.93;;
60030;SDS011;45901;47.600;9.890;2023-08-30T08:08:20;2.03;;;1.10;;
60030;SDS011;45901;47.600;9.890;2023-08-30T08:10:47;2.53;;;0.90;;
60030;SDS011;45901;47.600;9.890;2023-08-30T08:13:14;1.30;;;1.10;;
60030;SDS011;45901;47.600;9.890;2023-08-30T08:15:41;2.27;;;1.33;;
60030;SDS011;45901;47.600;9.890;2023-08-30T08:18:09;3.00;;;1.30;;
60030;SDS011;45901;47.600;9.890;2023-08-30T08:20:37;2.23;;;1.57;;
60030;SDS011;45901;47.600;9.890;2023-08-30T08:23:05;2.00;;;1.23;;
60030;SDS011;45901;47.600;9.890;2023-08-30T08:25:32;1.53;;;0.93;;
60030;SDS011;45901;47.600;9.890;2023-08-30T08:27:59;3.73;;;1.50;;
60030;SDS011;45901;47.600;9.890;2023-08-30T08:30:26;3.13;;;1.47;;
60030;SDS011;45901;47.600;9.890;2023-08-30T08:32:53;1.73;;;0.97;;
60030;SDS011;45901;47.600;9.890;2023-08-30T08:35:21;2.23;;;1.20;;
60030;SDS011;45901;47.600;9.890;2023-08-30T08:37:49;1.30;;;1.10;;
60030;SDS011;45901;47.600;9.890;2023-08-30T08:40:17;2.13;;;1.00;;
60030;SDS011;45901;47.600;9.890;2023-08-30T08:42:44;2.00;;;1.40;;
60030;SDS011;45901;47.600;9.890;2023-08-30T08:45:18;1.87;;;1.30;;
60030;SDS011;45901;47.600;9.890;2023-08-30T08:47:55;3.80;;;1.43;;
60030;SDS011;45901;47.600;9.890;2023-08-30T08:50:25;2.87;;;1.00;;
60030;SDS011;45901;47.600;9.890;2023-08-30T08:52:55;2.70;;;1.53;;
60030;SDS011;45901;47.600;9.890;2023-08-30T08:55:23;2.10;;;1.40;;
60030;SDS011;45901;47.600;9.890;2023-08-30T08:57:51;4.70;;;1.50;;
60030;SDS011;45901;47.600;9.890;2023-08-30T09:00:20;5.50;;;1.73;;
60030;SDS011;45901;47.600;9.890;2023-08-30T09:02:47;2.97;;;1.40;;
60030;SDS011;45901;47.600;9.890;2023-08-30T09:05:16;3.07;;;1.23;;
60030;SDS011;45901;47.600;9.890;2023-08-30T09:07:44;2.43;;;1.70;;
60030;SDS011;45901;47.600;9.890;2023-08-30T09:10:13;3.07;;;1.37;;
60030;SDS011;45901;47.600;9.890;2023-08-30T09:12:40;1.67;;;1.50;;
60030;SDS011;45901;47.600;9.890;2023-08-30T09:15:07;1.20;;;1.10;;
60030;SDS011;45901;47.600;9.890;2023-08-30T09:17:35;2.30;;;1.47;;
60030;SDS011;45901;47.600;9.890;2023-08-30T09:20:06;1.70;;;1.30;;
60030;SDS011;45901;47.600;9.890;2023-08-30T09:22:36;2.40;;;1.30;;
60030;SDS011;45901;47.600;9.890;2023-08-30T09:25:05;3.13;;;1.63;;
60030;SDS011;45901;47.600;9.890;2023-08-30T09:27:36;2.00;;;1.50;;
60030;SDS011;45901;47.600;9.890;2023-08-30T09:30:07;3.07;;;1.60;;
60030;SDS011;45901;47.600;9.890;2023-08-30T09:32:40;1.83;;;1.33;;
60030;SDS011;45901;47.600;9.890;2023-08-30T09:35:08;4.83;;;1.43;;
60030;SDS011;45901;47.600;9.890;2023-08-30T09:37:37;6.97;;;1.30;;
60030;SDS011;45901;47.600;9.890;2023-08-30T09:40:11;3.00;;;1.10;;
60030;SDS011;45901;47.600;9.890;2023-08-30T09:43:05;2.97;;;1.03;;
60030;SDS011;45901;47.600;9.890;2023-08-30T09:45:33;2.10;;;1.30;;
60030;SDS011;45901;47.600;9.890;2023-08-30T09:48:38;1.77;;;1.40;;
60030;SDS011;45901;47.600;9.890;2023-08-30T09:51:07;1.67;;;1.33;;
60030;SDS011;45901;47.600;9.890;2023-08-30T09:53:41;4.60;;;1.40;;
60030;SDS011;45901;47.600;9.890;2023-08-30T09:56:11;4.03;;;1.90;;
60030;SDS011;45901;47.600;9.890;2023-08-30T09:58:41;1.50;;;1.23;;
60030;SDS011;45901;47.600;9.890;2023-08-30T10:01:09;3.10;;;1.80;;
60030;SDS011;45901;47.600;9.890;2023-08-30T10:03:37;4.03;;;1.50;;
60030;SDS011;45901;47.600;9.890;2023-08-30T10:06:05;2.07;;;1.40;;
60030;SDS011;45901;47.600;9.890;2023-08-30T10:08:33;2.73;;;1.50;;
60030;SDS011;45901;47.600;9.890;2023-08-30T10:11:03;2.20;;;1.80;;
60030;SDS011;45901;47.600;9.890;2023-08-30T10:13:38;1.87;;;1.47;;
60030;SDS011;45901;47.600;9.890;2023-08-30T10:16:10;2.93;;;1.80;;
60030;SDS011;45901;47.600;9.890;2023-08-30T10:18:46;3.57;;;1.67;;
60030;SDS011;45901;47.600;9.890;2023-08-30T10:21:25;2.67;;;1.70;;
60030;SDS011;45901;47.600;9.890;2023-08-30T10:23:54;3.03;;;1.60;;
60030;SDS011;45901;47.600;9.890;2023-08-30T10:26:22;3.30;;;1.30;;
60030;SDS011;45901;47.600;9.890;2023-08-30T10:28:51;2.33;;;1.30;;
60030;SDS011;45901;47.600;9.890;2023-08-30T10:31:21;3.50;;;1.40;;
60030;SDS011;45901;47.600;9.890;2023-08-30T10:33:48;4.17;;;1.90;;
60030;SDS011;45901;47.600;9.890;2023-08-30T10:36:22;1.97;;;1.50;;
60030;SDS011;45901;47.600;9.890;2023-08-30T10:39:02;3.63;;;1.60;;
60030;SDS011;45901;47.600;9.890;2023-08-30T10:42:00;2.47;;;1.30;;
60030;SDS011;45901;47.600;9.890;2023-08-30T10:44:27;1.67;;;1.30;;
60030;SDS011;45901;47.600;9.890;2023-08-30T10:46:55;2.67;;;1.50;;
60030;SDS011;45901;47.600;9.890;2023-08-30T10:49:22;2.17;;;1.63;;
60030;SDS011;45901;47.600;9.890;2023-08-30T10:51:54;2.03;;;1.10;;
60030;SDS011;45901;47.600;9.890;2023-08-30T10:54:23;2.67;;;1.20;;
60030;SDS011;45901;47.600;9.890;2023-08-30T10:56:54;1.50;;;1.10;;
60030;SDS011;45901;47.600;9.890;2023-08-30T10:59:24;1.93;;;1.20;;
60030;SDS011;45901;47.600;9.890;2023-08-30T11:01:52;2.23;;;1.17;;
60030;SDS011;45901;47.600;9.890;2023-08-30T11:04:27;2.17;;;1.13;;
60030;SDS011;45901;47.600;9.890;2023-08-30T11:06:57;3.23;;;1.27;;
60030;SDS011;45901;47.600;9.890;2023-08-30T11:09:24;2.87;;;1.10;;
60030;SDS011;45901;47.600;9.890;2023-08-30T11:11:52;4.57;;;1.20;;
60030;SDS011;45901;47.600;9.890;2023-08-30T11:14:20;3.80;;;1.37;;
60030;SDS011;45901;47.600;9.890;2023-08-30T11:16:48;2.33;;;1.07;;
60030;SDS011;45901;47.600;9.890;2023-08-30T11:19:16;2.30;;;1.13;;
60030;SDS011;45901;47.600;9.890;2023-08-30T11:21:56;3.00;;;0.97;;
60030;SDS011;45901;47.600;9.890;2023-08-30T11:24:23;1.53;;;0.97;;
60030;SDS011;45901;47.600;9.890;2023-08-30T11:26:55;1.63;;;0.73;;
60030;SDS011;45901;47.600;9.890;2023-08-30T11:29:22;1.17;;;0.80;;
60030;SDS011;45901;47.600;9.890;2023-08-30T11:31:54;1.87;;;0.90;;
60030;SDS011;45901;47.600;9.890;2023-08-30T11:34:29;1.50;;;0.80;;
60030;SDS011;45901;47.600;9.890;2023-08-30T11:36:56;0.90;;;0.73;;
60030;SDS011;45901;47.600;9.890;2023-08-30T11:40:00;1.70;;;0.80;;
60030;SDS011;45901;47.600;9.890;2023-08-30T11:42:39;1.00;;;0.80;;
60030;SDS011;45901;47.600;9.890;2023-08-30T11:45:18;3.07;;;1.07;;
60030;SDS011;45901;47.600;9.890;2023-08-30T11:47:45;1.63;;;0.70;;
60030;SDS011;45901;47.600;9.890;2023-08-30T11:53:08;1.40;;;0.70;;
60030;SDS011;45901;47.600;9.890;2023-08-30T11:55:42;1.57;;;0.70;;
60030;SDS011;45901;47.600;9.890;2023-08-30T11:58:55;1.63;;;0.80;;
60030;SDS011;45901;47.600;9.890;2023-08-30T12:01:22;1.20;;;0.67;;
60030;SDS011;45901;47.600;9.890;2023-08-30T12:03:50;1.33;;;0.70;;
60030;SDS011;45901;47.600;9.890;2023-08-30T12:06:38;0.80;;;0.43;;
60030;SDS011;45901;47.600;9.890;2023-08-30T12:09:32;2.10;;;0.87;;
60030;SDS011;45901;47.600;9.890;2023-08-30T12:12:14;1.20;;;0.70;;
60030;SDS011;45901;47.600;9.890;2023-08-30T12:14:42;3.33;;;0.80;;
60030;SDS011;45901;47.600;9.890;2023-08-30T12:17:10;1.23;;;0.93;;
60030;SDS011;45901;47.600;9.890;2023-08-30T12:19:38;4.73;;;1.13;;
60030;SDS011;45901;47.600;9.890;2023-08-30T12:22:08;11.17;;;1.33;;
60030;SDS011;45901;47.600;9.890;2023-08-30T12:24:42;3.57;;;1.30;;
60030;SDS011;45901;47.600;9.890;2023-08-30T12:27:13;2.77;;;1.20;;
60030;SDS011;45901;47.600;9.890;2023-08-30T12:29:41;2.30;;;1.10;;
60030;SDS011;45901;47.600;9.890;2023-08-30T12:32:08;4.03;;;1.30;;
60030;SDS011;45901;47.600;9.890;2023-08-30T12:34:37;1.17;;;1.00;;
60030;SDS011;45901;47.600;9.890;2023-08-30T12:37:41;2.40;;;1.13;;
60030;SDS011;45901;47.600;9.890;2023-08-30T12:40:23;1.70;;;1.17;;
60030;SDS011;45901;47.600;9.890;2023-08-30T12:42:50;3.47;;;1.03;;
60030;SDS011;45901;47.600;9.890;2023-08-30T12:45:18;4.40;;;1.10;;
60030;SDS011;45901;47.600;9.890;2023-08-30T12:47:57;2.90;;;0.97;;
60030;SDS011;45901;47.600;9.890;2023-08-30T12:50:27;2.93;;;1.23;;
60030;SDS011;45901;47.600;9.890;2023-08-30T12:53:10;4.37;;;1.27;;
60030;SDS011;45901;47.600;9.890;2023-08-30T12:56:12;2.37;;;1.20;;
60030;SDS011;45901;47.600;9.890;2023-08-30T13:00:02;2.00;;;1.00;;
60030;SDS011;45901;47.600;9.890;2023-08-30T13:02:33;2.20;;;1.03;;
60030;SDS011;45901;47.600;9.890;2023-08-30T13:05:09;2.27;;;1.30;;
60030;SDS011;45901;47.600;9.890;2023-08-30T13:07:36;1.77;;;1.20;;
60030;SDS011;45901;47.600;9.890;2023-08-30T13:10:06;1.60;;;1.10;;
60030;SDS011;45901;47.600;9.890;2023-08-30T13:12:35;2.00;;;1.30;;
60030;SDS011;45901;47.600;9.890;2023-08-30T13:15:05;1.70;;;1.30;;
60030;SDS011;45901;47.600;9.890;2023-08-30T13:17:34;3.37;;;1.40;;
60030;SDS011;45901;47.600;9.890;2023-08-30T13:20:01;3.53;;;1.50;;
60030;SDS011;45901;47.600;9.890;2023-08-30T13:22:30;1.77;;;1.13;;
60030;SDS011;45901;47.600;9.890;2023-08-30T13:24:58;2.23;;;1.30;;
60030;SDS011;45901;47.600;9.890;2023-08-30T13:27:30;4.47;;;1.20;;
60030;SDS011;45901;47.600;9.890;2023-08-30T13:29:57;4.17;;;1.33;;
60030;SDS011;45901;47.600;9.890;2023-08-30T13:32:24;1.10;;;0.93;;
60030;SDS011;45901;47.600;9.890;2023-08-30T13:34:52;1.47;;;0.90;;
60030;SDS011;45901;47.600;9.890;2023-08-30T13:37:20;3.63;;;1.17;;
60030;SDS011;45901;47.600;9.890;2023-08-30T13:39:48;2.47;;;1.20;;
60030;SDS011;45901;47.600;9.890;2023-08-30T13:42:15;2.63;;;1.27;;
60030;SDS011;45901;47.600;9.890;2023-08-30T13:44:44;3.70;;;1.20;;
60030;SDS011;45901;47.600;9.890;2023-08-30T13:47:14;3.73;;;1.20;;
60030;SDS011;45901;47.600;9.890;2023-08-30T13:49:41;1.70;;;1.03;;
60030;SDS011;45901;47.600;9.890;2023-08-30T13:52:10;1.77;;;1.17;;
60030;SDS011;45901;47.600;9.890;2023-08-30T13:54:37;3.17;;;1.07;;
60030;SDS011;45901;47.600;9.890;2023-08-30T13:57:04;2.17;;;1.20;;
60030;SDS011;45901;47.600;9.890;2023-08-30T13:59:31;1.83;;;1.07;;
60030;SDS011;45901;47.600;9.890;2023-08-30T14:02:03;3.23;;;1.60;;
60030;SDS011;45901;47.600;9.890;2023-08-30T14:04:30;3.43;;;1.23;;
60030;SDS011;45901;47.600;9.890;2023-08-30T14:06:59;2.43;;;1.00;;
60030;SDS011;45901;47.600;9.890;2023-08-30T14:09:26;3.00;;;1.30;;
60030;SDS011;45901;47.600;9.890;2023-08-30T14:11:57;1.83;;;1.20;;
60030;SDS011;45901;47.600;9.890;2023-08-30T14:14:24;3.63;;;1.20;;
60030;SDS011;45901;47.600;9.890;2023-08-30T14:16:51;1.60;;;1.13;;
60030;SDS011;45901;47.600;9.890;2023-08-30T14:19:19;1.83;;;1.00;;
60030;SDS011;45901;47.600;9.890;2023-08-30T14:21:46;1.73;;;1.17;;
60030;SDS011;45901;47.600;9.890;2023-08-30T14:24:13;2.03;;;1.00;;
60030;SDS011;45901;47.600;9.890;2023-08-30T14:26:40;2.17;;;1.03;;
60030;SDS011;45901;47.600;9.890;2023-08-30T14:29:07;2.17;;;1.10;;
60030;SDS011;45901;47.600;9.890;2023-08-30T14:31:34;2.00;;;1.13;;
60030;SDS011;45901;47.600;9.890;2023-08-30T14:34:01;1.70;;;1.00;;
60030;SDS011;45901;47.600;9.890;2023-08-30T14:36:31;0.70;;;0.63;;
60030;SDS011;45901;47.600;9.890;2023-08-30T14:38:59;2.33;;;1.00;;
60030;SDS011;45901;47.600;9.890;2023-08-30T14:41:43;1.07;;;0.70;;
60030;SDS011;45901;47.600;9.890;2023-08-30T14:44:10;2.73;;;0.70;;
60030;SDS011;45901;47.600;9.890;2023-08-30T14:46:39;2.80;;;0.57;;
60030;SDS011;45901;47.600;9.890;2023-08-30T14:49:09;1.03;;;0.60;;
60030;SDS011;45901;47.600;9.890;2023-08-30T14:51:39;1.20;;;0.80;;
60030;SDS011;45901;47.600;9.890;2023-08-30T14:54:07;3.13;;;0.80;;
60030;SDS011;45901;47.600;9.890;2023-08-30T14:56:34;1.30;;;0.90;;
60030;SDS011;45901;47.600;9.890;2023-08-30T15:00:29;1.40;;;0.70;;
60030;SDS011;45901;47.600;9.890;2023-08-30T15:02:08;1.70;;;0.73;;
60030;SDS011;45901;47.600;9.890;2023-08-30T15:04:35;2.73;;;0.70;;
60030;SDS011;45901;47.600;9.890;2023-08-30T15:07:03;1.33;;;0.80;;